Time;durP1;ratioP1;P1;durP2;ratioP2;P2;SDS_P1;SDS_P2;PMS_P1;PMS_P2;Temp;Humidity;BMP_temperature;BMP_pressure;BME280_temperature;BME280_humidity;BME280_pressure;Samples;Min_cycle;Max_cycle;Signal;HPM_P1;HPM_P2
2023/08/25 00:00:24;;;;;;;6.63;4.65;;;21.20;99.90;;;;;;4949959;29;20439;-53
2023/08/25 00:02:50;;;;;;;5.07;4.57;;;21.10;99.90;;;;;;4949871;29;20063;-52
2023/08/25 00:05:15;;;;;;;5.85;4.68;;;21.00;99.90;;;;;;4949773;28;20024;-52
2023/08/25 00:07:41;;;;;;;5.93;4.68;;;20.90;99.90;;;;;;4949406;28;20481;-51
2023/08/25 00:10:07;;;;;;;6.20;4.85;;;20.90;99.90;;;;;;4949667;28;20027;-52
2023/08/25 00:12:32;;;;;;;7.30;4.65;;;20.90;99.90;;;;;;4945196;29;20050;-51
2023/08/25 00:14:58;;;;;;;7.18;4.53;;;20.90;99.90;;;;;;4943825;29;20094;-52
2023/08/25 00:17:23;;;;;;;5.32;4.63;;;21.00;99.90;;;;;;4946862;28;20063;-51
2023/08/25 00:19:49;;;;;;;14.27;5.00;;;21.00;99.90;;;;;;4949596;28;20027;-51
2023/08/25 00:22:14;;;;;;;10.68;4.90;;;21.00;99.90;;;;;;4961729;28;20035;-52
2023/08/25 00:24:40;;;;;;;8.32;4.13;;;21.00;99.90;;;;;;4949942;28;20070;-51
2023/08/25 00:27:06;;;;;;;6.85;4.82;;;21.00;99.90;;;;;;4949076;28;20396;-51
2023/08/25 00:29:31;;;;;;;10.73;5.03;;;21.10;99.90;;;;;;4947761;28;20342;-51
2023/08/25 00:31:57;;;;;;;9.68;4.50;;;21.10;99.90;;;;;;4949261;29;20108;-51
2023/08/25 00:34:22;;;;;;;8.73;5.22;;;21.10;99.90;;;;;;4931587;29;20023;-53
2023/08/25 00:36:48;;;;;;;5.22;4.13;;;21.10;99.90;;;;;;4930497;29;20028;-53
2023/08/25 00:39:13;;;;;;;8.50;4.53;;;21.10;99.90;;;;;;4929975;29;20447;-53
2023/08/25 00:41:39;;;;;;;9.73;4.53;;;21.20;99.90;;;;;;4930188;29;20024;-53
2023/08/25 00:44:04;;;;;;;8.38;4.55;;;21.20;99.90;;;;;;4930074;29;20028;-53
2023/08/25 00:46:30;;;;;;;5.05;4.25;;;21.20;99.90;;;;;;4946768;29;20031;-53
2023/08/25 00:48:57;;;;;;;7.32;4.97;;;21.20;99.90;;;;;;4948934;28;20544;-53
2023/08/25 00:51:25;;;;;;;10.45;4.90;;;21.20;99.90;;;;;;4949080;29;20486;-53
2023/08/25 00:53:50;;;;;;;6.65;4.57;;;21.30;99.90;;;;;;4949027;28;20074;-53
2023/08/25 00:56:17;;;;;;;9.88;5.13;;;21.20;99.90;;;;;;4945520;28;20397;-53
2023/08/25 00:58:43;;;;;;;9.52;5.00;;;21.20;99.90;;;;;;4948474;28;20102;-53
2023/08/25 01:01:09;;;;;;;6.35;4.85;;;21.20;99.90;;;;;;4949050;28;20102;-53
2023/08/25 01:03:38;;;;;;;7.80;4.80;;;21.20;99.90;;;;;;4948960;29;20030;-53
2023/08/25 01:06:04;;;;;;;10.27;4.90;;;21.20;99.90;;;;;;4949167;28;20068;-53
2023/08/25 01:08:30;;;;;;;7.18;4.43;;;21.20;99.90;;;;;;4948578;29;20034;-53
2023/08/25 01:11:10;;;;;;;9.90;5.20;;;21.20;99.90;;;;;;4948979;28;20098;-53
2023/08/25 01:13:55;;;;;;;6.82;4.78;;;21.20;99.90;;;;;;4948905;29;20383;-53
2023/08/25 01:16:29;;;;;;;9.20;5.07;;;21.20;99.90;;;;;;4948504;28;20023;-53
2023/08/25 01:18:56;;;;;;;8.57;4.80;;;21.20;99.90;;;;;;4948116;28;20062;-53
2023/08/25 01:21:22;;;;;;;6.95;4.97;;;21.20;99.90;;;;;;4948585;28;20024;-54
2023/08/25 01:24:12;;;;;;;10.63;5.00;;;21.10;99.90;;;;;;4948679;28;20019;-54
2023/08/25 01:26:38;;;;;;;9.73;4.90;;;21.10;99.90;;;;;;4945314;28;20020;-53
2023/08/25 01:29:04;;;;;;;5.97;4.88;;;21.20;99.90;;;;;;4929060;29;20020;-54
2023/08/25 01:31:29;;;;;;;7.50;4.53;;;21.20;99.90;;;;;;4929538;29;20093;-53
2023/08/25 01:33:55;;;;;;;8.52;4.70;;;21.20;99.90;;;;;;4929565;29;20425;-54
2023/08/25 01:36:32;;;;;;;6.35;5.15;;;21.20;99.90;;;;;;4929440;29;20508;-54
2023/08/25 01:39:03;;;;;;;7.50;4.63;;;21.20;99.90;;;;;;4929473;29;20019;-54
2023/08/25 01:41:31;;;;;;;5.95;4.65;;;21.30;99.90;;;;;;4929543;29;20030;-53
2023/08/25 01:44:00;;;;;;;7.20;4.97;;;21.30;99.90;;;;;;4929493;29;20016;-53
2023/08/25 01:46:27;;;;;;;8.33;4.70;;;21.30;99.90;;;;;;4929447;29;20035;-53
2023/08/25 01:48:58;;;;;;;7.25;4.65;;;21.30;99.90;;;;;;4928817;29;20270;-53
2023/08/25 01:51:24;;;;;;;6.55;4.20;;;21.40;99.90;;;;;;4929350;29;20079;-53
2023/08/25 01:53:54;;;;;;;8.15;4.45;;;21.40;99.90;;;;;;4929213;29;20024;-53
2023/08/25 01:56:20;;;;;;;5.13;4.63;;;21.40;99.90;;;;;;4929051;29;20362;-53
2023/08/25 01:58:45;;;;;;;4.60;4.07;;;21.40;99.90;;;;;;4936582;29;20074;-53
2023/08/25 02:01:11;;;;;;;6.35;4.30;;;21.40;99.90;;;;;;4945292;29;20030;-53
2023/08/25 02:03:36;;;;;;;9.05;4.50;;;21.40;99.90;;;;;;4948075;28;20039;-54
2023/08/25 02:06:02;;;;;;;10.55;4.65;;;21.40;99.90;;;;;;4948121;29;20030;-53
2023/08/25 02:08:28;;;;;;;7.45;4.25;;;21.50;99.90;;;;;;4944888;28;20027;-54
2023/08/25 02:10:53;;;;;;;5.25;4.15;;;21.50;99.90;;;;;;4942927;28;20123;-54
2023/08/25 02:13:19;;;;;;;8.93;4.68;;;21.50;99.90;;;;;;4937962;28;20035;-53
2023/08/25 02:15:46;;;;;;;6.28;4.55;;;21.50;99.90;;;;;;4944890;28;20492;-52
2023/08/25 02:18:12;;;;;;;8.15;3.95;;;21.50;99.90;;;;;;4945079;28;20028;-53
2023/08/25 02:20:38;;;;;;;7.50;4.53;;;21.50;99.90;;;;;;4945018;28;20024;-53
2023/08/25 02:23:04;;;;;;;9.18;4.70;;;21.50;99.90;;;;;;4944387;28;20027;-52
2023/08/25 02:25:30;;;;;;;7.28;4.60;;;21.50;99.90;;;;;;4944428;28;20082;-52
2023/08/25 02:27:56;;;;;;;9.40;4.93;;;21.50;99.90;;;;;;4947685;28;20020;-53
2023/08/25 02:30:22;;;;;;;7.13;4.75;;;21.50;99.90;;;;;;4951131;28;20037;-52
2023/08/25 02:32:48;;;;;;;6.60;5.13;;;21.50;99.90;;;;;;4951582;29;20081;-53
2023/08/25 02:35:13;;;;;;;8.40;4.65;;;21.40;99.90;;;;;;4962869;28;20122;-53
2023/08/25 02:37:59;;;;;;;10.90;5.15;;;21.40;99.90;;;;;;4965007;28;20062;-53
2023/08/25 02:40:26;;;;;;;7.03;4.55;;;21.50;99.90;;;;;;4951177;28;20023;-53
2023/08/25 02:42:52;;;;;;;6.10;4.22;;;21.40;99.90;;;;;;4951372;28;20019;-53
2023/08/25 02:45:17;;;;;;;7.28;4.47;;;21.40;99.90;;;;;;4951010;29;20527;-52
2023/08/25 02:47:43;;;;;;;11.90;5.25;;;21.40;99.90;;;;;;4950811;28;20054;-53
2023/08/25 02:50:09;;;;;;;9.52;5.10;;;21.40;99.90;;;;;;4951013;29;20027;-52
2023/08/25 02:52:34;;;;;;;11.60;6.15;;;21.40;99.90;;;;;;4950631;29;20035;-53
2023/08/25 02:55:00;;;;;;;9.23;5.60;;;21.40;99.90;;;;;;4951093;28;20024;-53
2023/08/25 02:57:26;;;;;;;11.68;6.35;;;21.40;99.90;;;;;;4950313;28;20568;-52
2023/08/25 02:59:51;;;;;;;9.20;6.45;;;21.40;99.90;;;;;;4946389;28;20202;-52
2023/08/25 03:02:17;;;;;;;10.40;5.78;;;21.40;99.90;;;;;;4947565;29;20041;-52
2023/08/25 03:04:43;;;;;;;23.95;7.05;;;21.40;99.90;;;;;;4951235;28;20384;-52
2023/08/25 03:07:09;;;;;;;15.73;7.97;;;21.30;99.90;;;;;;4950653;28;20499;-52
2023/08/25 03:09:34;;;;;;;12.50;7.22;;;21.30;99.90;;;;;;4950734;29;20028;-52
2023/08/25 03:12:00;;;;;;;15.13;7.40;;;21.30;99.90;;;;;;4950895;28;20026;-51
2023/08/25 03:14:26;;;;;;;13.60;7.10;;;21.20;99.90;;;;;;4950829;29;20031;-51
2023/08/25 03:16:52;;;;;;;11.75;7.13;;;21.20;99.90;;;;;;4950699;28;20023;-50
2023/08/25 03:19:18;;;;;;;13.50;7.25;;;21.10;99.90;;;;;;4950218;28;20058;-51
2023/08/25 03:21:43;;;;;;;13.18;7.47;;;21.00;99.90;;;;;;4950573;29;20031;-52
2023/08/25 03:24:09;;;;;;;12.07;6.82;;;20.90;99.90;;;;;;4950574;29;20031;-51
2023/08/25 03:26:35;;;;;;;10.60;7.20;;;20.90;99.90;;;;;;4950788;28;20024;-51
2023/08/25 03:29:00;;;;;;;14.27;6.45;;;20.90;99.90;;;;;;4950045;29;20435;-51
2023/08/25 03:31:26;;;;;;;11.38;6.65;;;20.80;99.90;;;;;;4950274;29;20023;-51
2023/08/25 03:33:51;;;;;;;10.15;6.78;;;20.80;99.90;;;;;;4950377;28;20027;-52
2023/08/25 03:36:17;;;;;;;13.43;6.80;;;20.80;99.90;;;;;;4950130;28;20058;-50
2023/08/25 03:38:42;;;;;;;8.73;6.13;;;20.80;99.90;;;;;;4945321;29;20511;-51
2023/08/25 03:41:08;;;;;;;9.10;6.45;;;20.70;99.90;;;;;;4942789;28;20038;-51
2023/08/25 03:43:35;;;;;;;9.80;5.78;;;20.60;99.90;;;;;;4947491;29;20039;-51
2023/08/25 03:46:01;;;;;;;9.52;6.28;;;20.50;99.90;;;;;;4950224;28;20037;-51
2023/08/25 03:48:27;;;;;;;10.07;6.53;;;20.40;99.90;;;;;;4946124;28;20023;-52
2023/08/25 03:50:52;;;;;;;11.13;6.82;;;20.40;99.90;;;;;;4950289;29;20020;-52
2023/08/25 03:53:18;;;;;;;8.88;5.70;;;20.30;99.90;;;;;;4949988;28;20034;-52
2023/08/25 03:55:43;;;;;;;8.48;5.68;;;20.30;99.90;;;;;;4945539;29;20366;-52
2023/08/25 03:58:10;;;;;;;12.15;6.30;;;20.30;99.90;;;;;;4944896;29;20026;-52
2023/08/25 04:00:36;;;;;;;8.85;6.50;;;20.30;99.90;;;;;;4949913;28;20108;-52
2023/08/25 04:03:03;;;;;;;10.63;6.45;;;20.30;99.90;;;;;;4950120;28;20488;-52
2023/08/25 04:05:30;;;;;;;8.98;6.15;;;20.30;99.90;;;;;;4949908;28;20011;-52
2023/08/25 04:07:56;;;;;;;9.95;6.32;;;20.30;99.90;;;;;;4949335;28;20393;-52
2023/08/25 04:10:23;;;;;;;9.40;6.60;;;20.20;99.90;;;;;;4949918;28;20016;-51
2023/08/25 04:12:48;;;;;;;8.10;6.20;;;20.10;99.90;;;;;;4949834;29;20530;-52
2023/08/25 04:15:14;;;;;;;11.13;6.00;;;20.00;99.90;;;;;;4949697;28;20062;-52
2023/08/25 04:17:39;;;;;;;9.90;6.00;;;19.90;99.90;;;;;;4949009;28;20722;-51
2023/08/25 04:20:05;;;;;;;8.68;5.82;;;19.90;99.90;;;;;;4949552;28;20055;-51
2023/08/25 04:22:31;;;;;;;8.23;5.80;;;19.70;99.90;;;;;;4949324;28;20035;-51
2023/08/25 04:24:56;;;;;;;9.30;5.90;;;19.70;99.90;;;;;;4944979;29;20031;-51
2023/08/25 04:27:22;;;;;;;10.82;5.97;;;19.70;99.90;;;;;;4945944;29;20080;-52
2023/08/25 04:29:48;;;;;;;9.18;5.72;;;19.60;99.90;;;;;;4949704;28;20065;-50
2023/08/25 04:32:15;;;;;;;9.07;5.95;;;19.50;99.90;;;;;;4949348;28;20086;-51
2023/08/25 04:34:41;;;;;;;12.35;7.25;;;19.50;99.90;;;;;;4949095;28;20035;-52
2023/08/25 04:37:06;;;;;;;11.55;7.28;;;19.50;99.90;;;;;;4948991;28;20050;-52
2023/08/25 04:39:32;;;;;;;15.40;7.13;;;19.60;99.90;;;;;;4949276;29;20027;-51
2023/08/25 04:41:57;;;;;;;11.45;7.28;;;19.60;99.90;;;;;;4949293;29;20035;-53
2023/08/25 04:44:23;;;;;;;10.63;6.40;;;19.60;99.90;;;;;;4949163;29;20034;-53
2023/08/25 04:46:48;;;;;;;12.98;7.65;;;19.60;99.90;;;;;;4939549;28;20031;-52
2023/08/25 04:49:14;;;;;;;10.70;7.05;;;19.60;99.90;;;;;;4940088;28;20117;-53
2023/08/25 04:51:39;;;;;;;10.85;6.40;;;19.60;99.90;;;;;;4947421;29;20105;-53
2023/08/25 04:54:05;;;;;;;9.35;6.15;;;19.60;99.90;;;;;;4949455;29;20032;-53
2023/08/25 04:56:30;;;;;;;10.95;7.00;;;19.60;99.90;;;;;;4948965;28;20023;-53
2023/08/25 04:58:56;;;;;;;7.30;5.82;;;19.60;99.90;;;;;;4948676;28;20399;-53
2023/08/25 05:01:21;;;;;;;9.90;6.15;;;19.60;99.90;;;;;;4945260;29;20031;-52
2023/08/25 05:03:48;;;;;;;8.32;5.63;;;19.50;99.90;;;;;;4936966;29;20032;-52
2023/08/25 05:06:14;;;;;;;10.50;6.32;;;19.50;99.90;;;;;;4944733;29;20019;-52
2023/08/25 05:08:39;;;;;;;10.73;5.93;;;19.50;99.90;;;;;;4946774;28;20020;-51
2023/08/25 05:11:05;;;;;;;8.43;6.35;;;19.50;99.90;;;;;;4949009;28;20102;-53
2023/08/25 05:13:31;;;;;;;9.48;6.25;;;19.50;99.90;;;;;;4948861;28;20508;-53
2023/08/25 05:15:56;;;;;;;11.73;6.60;;;19.60;99.90;;;;;;4948961;28;20055;-52
2023/08/25 05:18:24;;;;;;;10.20;6.55;;;19.60;99.90;;;;;;4948501;29;20093;-51
2023/08/25 05:20:50;;;;;;;16.95;7.15;;;19.60;99.90;;;;;;4948951;28;20023;-51
2023/08/25 05:23:15;;;;;;;12.45;7.53;;;19.70;99.90;;;;;;4949115;29;20099;-52
2023/08/25 05:25:41;;;;;;;11.60;6.65;;;19.80;99.90;;;;;;4948617;28;20031;-52
2023/08/25 05:28:06;;;;;;;11.50;6.35;;;19.80;99.90;;;;;;4958970;28;20012;-52
2023/08/25 05:30:32;;;;;;;8.20;6.15;;;19.90;99.90;;;;;;4932490;28;20111;-53
2023/08/25 05:32:57;;;;;;;9.85;6.22;;;20.00;99.90;;;;;;4945255;28;20098;-53
2023/08/25 05:35:23;;;;;;;9.70;5.97;;;20.10;99.90;;;;;;4944392;28;20036;-52
2023/08/25 05:37:49;;;;;;;11.30;6.70;;;20.10;99.90;;;;;;4940392;28;20023;-53
2023/08/25 05:40:14;;;;;;;9.15;6.13;;;20.20;99.90;;;;;;4949370;28;20462;-53
2023/08/25 05:42:40;;;;;;;12.85;6.60;;;20.20;99.90;;;;;;4939897;28;20039;-53
2023/08/25 05:45:07;;;;;;;8.80;6.35;;;20.30;99.90;;;;;;4947824;28;20114;-53
2023/08/25 05:47:32;;;;;;;10.52;5.88;;;20.30;99.90;;;;;;4944016;28;20559;-53
2023/08/25 05:49:58;;;;;;;12.38;5.05;;;20.40;99.90;;;;;;4945449;28;20031;-51
2023/08/25 05:52:24;;;;;;;9.77;6.00;;;20.40;99.90;;;;;;4945175;28;20564;-52
2023/08/25 05:54:50;;;;;;;12.57;5.30;;;20.50;99.90;;;;;;4948446;28;20023;-54
2023/08/25 05:57:15;;;;;;;9.95;5.40;;;20.50;99.90;;;;;;4948608;28;20027;-54
2023/08/25 05:59:41;;;;;;;8.63;5.68;;;20.60;99.90;;;;;;4947673;29;20042;-53
2023/08/25 06:02:07;;;;;;;10.75;5.45;;;20.60;99.90;;;;;;4948231;28;20388;-52
2023/08/25 06:04:32;;;;;;;8.57;4.85;;;20.70;99.90;;;;;;4944581;28;20035;-53
2023/08/25 06:06:57;;;;;;;8.23;4.75;;;20.70;99.90;;;;;;4952169;28;20099;-53
2023/08/25 06:09:23;;;;;;;6.68;4.82;;;20.80;99.90;;;;;;4951407;29;20072;-53
2023/08/25 06:11:49;;;;;;;7.32;4.55;;;20.80;99.90;;;;;;4951561;28;20016;-53
2023/08/25 06:14:15;;;;;;;7.63;4.65;;;20.90;99.90;;;;;;4947268;29;20031;-54
2023/08/25 06:16:44;;;;;;;6.30;4.57;;;20.90;99.90;;;;;;4950036;28;20085;-54
2023/08/25 06:19:09;;;;;;;7.40;4.38;;;21.00;99.90;;;;;;4950991;28;20315;-54
2023/08/25 06:21:35;;;;;;;8.65;4.70;;;21.00;99.90;;;;;;4951468;28;20038;-53
2023/08/25 06:24:01;;;;;;;9.15;4.63;;;21.10;99.90;;;;;;4951253;28;20024;-53
2023/08/25 06:26:26;;;;;;;5.97;3.90;;;21.10;99.90;;;;;;4951188;28;20103;-51
2023/08/25 06:28:53;;;;;;;6.07;4.47;;;21.20;99.90;;;;;;4944204;28;20039;-52
2023/08/25 06:31:18;;;;;;;9.00;4.05;;;21.20;99.90;;;;;;4941842;29;20106;-53
2023/08/25 06:33:45;;;;;;;11.98;4.75;;;21.20;99.90;;;;;;4951126;29;20535;-53
2023/08/25 06:36:10;;;;;;;6.10;4.00;;;21.30;99.90;;;;;;4948138;29;20039;-53
2023/08/25 06:38:36;;;;;;;6.18;3.95;;;21.30;99.90;;;;;;4948279;28;20057;-53
2023/08/25 06:41:03;;;;;;;8.70;4.97;;;21.30;99.90;;;;;;4932366;29;20050;-54
2023/08/25 06:43:29;;;;;;;10.13;3.85;;;21.40;99.90;;;;;;4931803;29;20027;-54
2023/08/25 06:45:54;;;;;;;6.88;4.45;;;21.40;99.90;;;;;;4939078;29;20473;-53
2023/08/25 06:48:21;;;;;;;7.80;4.35;;;21.50;99.90;;;;;;4946250;29;20401;-54
2023/08/25 06:50:47;;;;;;;9.43;4.28;;;21.50;99.90;;;;;;4949024;28;20032;-54
2023/08/25 06:53:12;;;;;;;12.38;4.78;;;21.60;99.90;;;;;;4946756;29;20059;-52
2023/08/25 06:55:38;;;;;;;5.20;3.85;;;21.60;99.90;;;;;;4940994;28;20032;-53
2023/08/25 06:58:05;;;;;;;5.10;4.13;;;21.60;99.90;;;;;;4947083;28;20046;-54
2023/08/25 07:00:31;;;;;;;6.35;3.92;;;21.70;99.90;;;;;;4948089;29;20389;-52
2023/08/25 07:02:56;;;;;;;8.70;3.72;;;21.80;99.90;;;;;;4950794;29;20038;-53
2023/08/25 07:05:23;;;;;;;5.80;4.00;;;21.80;99.90;;;;;;4950741;28;20035;-54
2023/08/25 07:07:51;;;;;;;8.38;4.32;;;21.90;99.90;;;;;;4950719;28;20015;-54
2023/08/25 07:10:17;;;;;;;5.82;3.50;;;21.90;99.90;;;;;;4946716;28;20046;-54
2023/08/25 07:12:43;;;;;;;6.22;3.17;;;22.00;99.90;;;;;;4949623;28;20020;-54
2023/08/25 07:15:09;;;;;;;4.63;3.75;;;22.10;99.90;;;;;;4950173;28;20030;-54
2023/08/25 07:17:35;;;;;;;6.70;3.97;;;22.10;99.90;;;;;;4950061;28;20162;-54
2023/08/25 07:20:00;;;;;;;6.35;4.25;;;22.30;99.90;;;;;;4946096;28;20115;-54
2023/08/25 07:22:26;;;;;;;10.25;4.43;;;22.30;99.90;;;;;;4946743;29;20030;-54
2023/08/25 07:24:53;;;;;;;6.43;4.00;;;22.40;99.90;;;;;;4950500;28;20027;-54
2023/08/25 07:27:20;;;;;;;9.63;4.55;;;22.50;99.90;;;;;;4949852;28;20572;-54
2023/08/25 07:29:45;;;;;;;7.00;3.50;;;22.50;99.90;;;;;;4950176;28;20038;-54
2023/08/25 07:32:11;;;;;;;8.23;3.72;;;22.60;99.90;;;;;;4950235;28;20384;-54
2023/08/25 07:34:37;;;;;;;4.45;3.38;;;22.70;99.90;;;;;;4950198;28;20035;-53
2023/08/25 07:37:02;;;;;;;3.42;2.88;;;22.80;99.90;;;;;;4950263;28;20027;-54
2023/08/25 07:39:29;;;;;;;10.52;3.50;;;22.90;99.90;;;;;;4950055;28;20051;-55
2023/08/25 07:41:55;;;;;;;7.88;3.72;;;23.00;99.90;;;;;;4949089;28;20515;-54
2023/08/25 07:44:21;;;;;;;6.35;3.20;;;23.10;99.90;;;;;;4948409;28;20107;-55
2023/08/25 07:46:47;;;;;;;4.68;3.25;;;23.30;99.90;;;;;;4948478;28;20122;-54
2023/08/25 07:49:12;;;;;;;5.00;3.17;;;23.50;99.90;;;;;;4940497;28;20028;-53
2023/08/25 07:51:38;;;;;;;4.40;3.33;;;23.70;99.90;;;;;;4984747;28;20397;-54
2023/08/25 07:54:05;;;;;;;5.55;3.72;;;23.80;99.90;;;;;;4948787;28;20034;-53
2023/08/25 07:56:31;;;;;;;7.25;3.28;;;24.00;99.90;;;;;;4948800;28;20045;-54
2023/08/25 07:58:56;;;;;;;6.85;3.28;;;24.40;99.90;;;;;;4944970;28;20425;-54
2023/08/25 08:01:22;;;;;;;5.07;3.20;;;24.90;99.90;;;;;;4945166;28;20030;-54
2023/08/25 08:03:47;;;;;;;5.30;2.85;;;25.80;99.90;;;;;;4946193;28;20031;-54
2023/08/25 08:06:13;;;;;;;4.65;2.83;;;26.60;99.90;;;;;;4947119;29;20740;-54
2023/08/25 08:08:39;;;;;;;2.97;2.45;;;27.40;99.90;;;;;;4948978;29;20554;-54
2023/08/25 08:11:04;;;;;;;4.18;2.75;;;28.30;99.90;;;;;;4949469;28;20030;-54
2023/08/25 08:13:30;;;;;;;4.38;2.70;;;29.30;98.10;;;;;;4949935;28;20023;-54
2023/08/25 08:15:56;;;;;;;3.67;2.38;;;30.20;96.00;;;;;;4949640;28;20036;-54
2023/08/25 08:18:21;;;;;;;6.60;2.80;;;31.00;93.90;;;;;;4944486;28;20536;-55
2023/08/25 08:20:48;;;;;;;6.75;2.72;;;31.80;92.20;;;;;;4949230;28;20123;-55
2023/08/25 08:23:14;;;;;;;3.00;2.15;;;32.80;90.50;;;;;;4948681;28;20093;-54
2023/08/25 08:25:39;;;;;;;3.72;2.00;;;33.60;89.00;;;;;;4943151;28;20476;-54
2023/08/25 08:28:08;;;;;;;3.20;2.15;;;34.40;85.60;;;;;;4951182;28;20028;-54
2023/08/25 08:30:34;;;;;;;5.25;1.95;;;34.70;81.90;;;;;;4938450;28;20373;-55
2023/08/25 08:32:59;;;;;;;4.13;2.53;;;35.20;80.70;;;;;;4937576;29;20359;-55
2023/08/25 08:35:25;;;;;;;3.72;2.10;;;35.40;77.30;;;;;;4938824;29;20046;-55
2023/08/25 08:37:50;;;;;;;3.25;2.10;;;35.30;76.60;;;;;;4951666;28;20043;-55
2023/08/25 08:40:16;;;;;;;5.50;2.17;;;35.30;75.70;;;;;;4937261;29;20112;-55
2023/08/25 08:42:44;;;;;;;3.45;2.30;;;35.00;76.00;;;;;;4940815;28;20054;-55
2023/08/25 08:45:10;;;;;;;3.33;1.90;;;35.40;74.10;;;;;;4932677;28;20117;-55
2023/08/25 08:47:37;;;;;;;5.00;1.95;;;35.80;74.10;;;;;;4937299;28;20027;-55
2023/08/25 08:50:06;;;;;;;4.25;2.28;;;35.90;72.80;;;;;;4939161;28;20389;-53
2023/08/25 08:52:32;;;;;;;3.40;2.25;;;36.10;72.90;;;;;;4936933;28;20460;-53
2023/08/25 08:54:59;;;;;;;3.25;2.25;;;36.10;72.90;;;;;;4938874;28;20061;-54
2023/08/25 08:57:26;;;;;;;2.90;1.67;;;35.80;73.50;;;;;;4938820;28;20027;-54
2023/08/25 08:59:52;;;;;;;5.95;2.38;;;36.00;73.00;;;;;;4938739;28;20118;-55
2023/08/25 09:02:20;;;;;;;3.35;2.50;;;35.70;72.80;;;;;;4938822;29;20109;-53
2023/08/25 09:04:47;;;;;;;4.18;2.13;;;35.50;72.20;;;;;;4937603;28;20127;-54
2023/08/25 09:07:13;;;;;;;3.85;2.55;;;35.10;72.40;;;;;;4936633;29;20040;-55
2023/08/25 09:09:40;;;;;;;4.88;1.98;;;34.30;74.40;;;;;;4938581;29;20027;-54
2023/08/25 09:12:06;;;;;;;5.35;2.85;;;34.10;76.00;;;;;;4936995;28;20016;-54
2023/08/25 09:14:31;;;;;;;3.85;2.42;;;34.00;74.90;;;;;;4953685;28;20032;-54
2023/08/25 09:17:01;;;;;;;3.13;2.03;;;34.10;74.90;;;;;;4939002;28;20049;-54
2023/08/25 09:19:30;;;;;;;6.97;2.78;;;33.80;75.60;;;;;;4937702;29;20023;-54
2023/08/25 09:21:56;;;;;;;6.55;2.60;;;33.10;76.60;;;;;;4999388;28;20048;-55
2023/08/25 09:24:22;;;;;;;4.82;2.08;;;32.90;77.10;;;;;;4969446;28;20528;-55
2023/08/25 09:26:49;;;;;;;4.82;2.53;;;32.20;79.10;;;;;;4954027;28;20387;-54
2023/08/25 09:29:15;;;;;;;2.70;2.08;;;32.60;78.70;;;;;;4936625;29;20024;-55
2023/08/25 09:31:41;;;;;;;6.90;2.35;;;33.20;77.70;;;;;;4938679;28;20036;-54
2023/08/25 09:34:08;;;;;;;2.55;2.10;;;34.30;76.40;;;;;;4940314;28;20055;-55
2023/08/25 09:36:48;;;;;;;3.22;1.90;;;34.90;75.70;;;;;;4939610;29;20039;-55
2023/08/25 09:39:14;;;;;;;6.90;2.00;;;35.00;73.70;;;;;;4938293;29;20523;-54
2023/08/25 09:41:40;;;;;;;7.38;2.17;;;35.20;74.00;;;;;;4939755;29;20031;-55
2023/08/25 09:44:05;;;;;;;3.63;2.42;;;35.50;73.10;;;;;;4940321;28;20019;-54
2023/08/25 09:46:34;;;;;;;7.03;2.70;;;35.70;72.90;;;;;;4938680;29;20110;-55
2023/08/25 09:49:05;;;;;;;6.97;2.55;;;35.90;70.30;;;;;;4937057;29;20020;-55
2023/08/25 09:51:36;;;;;;;4.70;1.85;;;35.20;69.80;;;;;;4939053;29;20110;-54
2023/08/25 09:54:07;;;;;;;6.40;2.30;;;35.50;71.10;;;;;;4942608;28;20088;-53
2023/08/25 09:56:34;;;;;;;3.28;1.60;;;36.30;68.40;;;;;;4948767;28;20035;-55
2023/08/25 09:59:01;;;;;;;4.22;1.92;;;36.40;70.30;;;;;;4946667;28;20031;-55
2023/08/25 10:01:27;;;;;;;5.70;2.05;;;36.50;71.50;;;;;;4948569;28;20027;-53
2023/08/25 10:03:54;;;;;;;5.25;2.33;;;36.60;68.40;;;;;;4948317;29;20251;-54
2023/08/25 10:06:21;;;;;;;5.13;2.60;;;36.70;69.40;;;;;;4943875;29;20019;-54
2023/08/25 10:08:47;;;;;;;3.13;1.95;;;36.10;68.60;;;;;;4945739;29;20028;-54
2023/08/25 10:11:15;;;;;;;5.68;2.20;;;35.10;69.40;;;;;;4959709;28;20035;-54
2023/08/25 10:13:44;;;;;;;5.43;2.50;;;34.10;71.20;;;;;;4945213;29;20023;-53
2023/08/25 10:16:11;;;;;;;5.77;2.80;;;32.80;72.90;;;;;;4943910;28;20031;-54
2023/08/25 10:18:42;;;;;;;3.97;2.65;;;31.50;76.80;;;;;;4944390;29;20026;-54
2023/08/25 10:21:09;;;;;;;4.57;2.58;;;31.80;77.50;;;;;;4948296;28;20479;-53
2023/08/25 10:23:37;;;;;;;6.55;2.85;;;31.90;76.40;;;;;;4948082;28;20117;-54
2023/08/25 10:26:04;;;;;;;3.60;2.53;;;32.00;75.90;;;;;;4948093;28;20129;-54
2023/08/25 10:28:30;;;;;;;7.22;3.03;;;32.30;75.60;;;;;;4947581;28;20628;-53
2023/08/25 10:30:56;;;;;;;4.15;2.25;;;31.50;76.50;;;;;;4945469;28;20031;-53
2023/08/25 10:33:22;;;;;;;6.20;2.97;;;31.00;78.50;;;;;;4929320;29;20572;-54
2023/08/25 10:35:49;;;;;;;5.60;3.00;;;30.40;79.60;;;;;;4928506;29;20038;-53
2023/08/25 10:38:35;;;;;;;3.85;2.50;;;30.00;81.20;;;;;;4928482;29;20023;-53
2023/08/25 10:41:12;;;;;;;7.28;2.72;;;29.60;82.40;;;;;;4929021;29;20032;-54
2023/08/25 10:43:38;;;;;;;6.07;2.67;;;29.00;84.00;;;;;;4928552;29;20134;-53
2023/08/25 10:46:08;;;;;;;4.47;3.15;;;28.70;84.70;;;;;;4928665;29;20516;-52
2023/08/25 10:48:34;;;;;;;3.00;2.60;;;28.40;86.00;;;;;;4928348;29;20035;-54
2023/08/25 10:51:10;;;;;;;4.68;2.92;;;28.10;86.60;;;;;;4931135;29;20020;-52
2023/08/25 10:53:42;;;;;;;3.70;2.53;;;28.00;87.90;;;;;;4932205;29;20028;-54
2023/08/25 10:56:17;;;;;;;5.95;3.00;;;27.80;87.20;;;;;;4943950;29;20407;-53
2023/08/25 10:58:54;;;;;;;4.30;2.90;;;27.60;89.50;;;;;;4947925;28;20046;-53
2023/08/25 11:01:22;;;;;;;5.85;2.85;;;27.60;89.70;;;;;;4950407;28;20031;-52
2023/08/25 11:04:10;;;;;;;6.13;2.95;;;27.40;89.30;;;;;;4947634;29;20046;-54
2023/08/25 11:06:44;;;;;;;9.02;3.55;;;27.20;89.50;;;;;;4950713;28;20020;-52
2023/08/25 11:09:18;;;;;;;4.00;2.95;;;27.10;89.80;;;;;;4947802;28;20042;-52
2023/08/25 11:11:45;;;;;;;6.82;3.10;;;27.00;90.60;;;;;;4946514;28;20431;-52
2023/08/25 11:14:14;;;;;;;7.45;3.00;;;26.80;91.10;;;;;;4942791;28;20036;-53
2023/08/25 11:16:40;;;;;;;4.97;3.58;;;26.70;91.10;;;;;;4939261;28;20023;-53
2023/08/25 11:19:25;;;;;;;6.63;3.58;;;26.60;91.40;;;;;;4940369;28;20035;-53
2023/08/25 11:22:02;;;;;;;9.02;4.10;;;26.50;92.20;;;;;;4945627;28;20039;-52
2023/08/25 11:24:29;;;;;;;5.88;3.90;;;26.40;92.50;;;;;;4935723;28;20031;-51
2023/08/25 11:27:03;;;;;;;5.50;3.58;;;26.40;92.60;;;;;;4940060;28;20038;-52
2023/08/25 11:29:29;;;;;;;7.60;3.83;;;26.30;92.50;;;;;;4949549;28;20497;-51
2023/08/25 11:31:54;;;;;;;5.55;3.95;;;26.30;92.70;;;;;;4952077;28;20034;-53
2023/08/25 11:34:21;;;;;;;6.35;3.90;;;26.20;93.10;;;;;;4946586;28;20032;-52
2023/08/25 11:36:47;;;;;;;10.90;4.22;;;26.00;93.60;;;;;;4945023;28;20111;-52
2023/08/25 11:39:20;;;;;;;6.47;4.35;;;25.80;94.20;;;;;;4947116;28;20572;-52
2023/08/25 11:41:46;;;;;;;7.60;4.20;;;25.60;95.20;;;;;;4947260;28;20042;-52
2023/08/25 11:44:13;;;;;;;8.98;4.57;;;25.60;95.10;;;;;;4948622;28;20023;-51
2023/08/25 11:46:39;;;;;;;5.78;4.45;;;25.40;95.40;;;;;;4949880;28;20035;-53
2023/08/25 11:49:06;;;;;;;5.57;4.18;;;25.20;96.00;;;;;;4947712;28;20460;-52
2023/08/25 11:51:35;;;;;;;7.38;4.70;;;25.10;97.00;;;;;;4947779;28;20118;-52
2023/08/25 11:54:01;;;;;;;11.10;4.65;;;25.00;97.60;;;;;;4948230;28;20026;-52
2023/08/25 11:56:27;;;;;;;13.70;5.65;;;24.90;98.90;;;;;;4947782;28;20054;-51
2023/08/25 11:58:53;;;;;;;6.32;5.03;;;24.70;99.90;;;;;;4944569;28;20039;-52
2023/08/25 12:01:18;;;;;;;10.35;5.20;;;24.50;99.90;;;;;;4947795;28;20039;-51
2023/08/25 12:03:44;;;;;;;8.55;4.93;;;24.20;99.90;;;;;;4947513;28;20473;-52
2023/08/25 12:06:11;;;;;;;9.18;5.50;;;24.10;99.90;;;;;;4948227;28;20024;-52
2023/08/25 12:08:39;;;;;;;9.30;5.28;;;24.00;99.90;;;;;;4951015;28;20023;-52
2023/08/25 12:11:10;;;;;;;10.55;5.82;;;23.80;99.90;;;;;;4936065;28;20027;-51
2023/08/25 12:13:41;;;;;;;7.05;5.72;;;23.60;99.90;;;;;;4946051;28;20501;-49
2023/08/25 12:16:06;;;;;;;9.85;5.65;;;23.50;99.90;;;;;;4948450;28;20031;-52
2023/08/25 12:18:36;;;;;;;9.68;5.45;;;23.40;99.90;;;;;;4945800;28;20042;-51
2023/08/25 12:21:05;;;;;;;9.77;6.57;;;23.30;99.90;;;;;;4936562;28;20487;-51
2023/08/25 12:23:34;;;;;;;8.15;6.57;;;23.20;99.90;;;;;;4945127;28;20043;-51
2023/08/25 12:26:00;;;;;;;12.13;7.47;;;23.00;99.90;;;;;;4941515;28;20162;-51
2023/08/25 12:28:26;;;;;;;8.30;6.40;;;22.90;99.90;;;;;;4943789;28;20027;-51
2023/08/25 12:30:51;;;;;;;10.60;7.15;;;22.80;99.90;;;;;;4935394;28;20267;-52
2023/08/25 12:33:17;;;;;;;14.25;8.40;;;22.70;99.90;;;;;;4949164;28;20071;-52
2023/08/25 12:35:42;;;;;;;11.50;7.90;;;22.50;99.90;;;;;;4949355;28;20442;-54
2023/08/25 12:38:08;;;;;;;14.98;10.13;;;22.40;99.90;;;;;;4944118;28;20020;-53
2023/08/25 12:40:33;;;;;;;13.38;10.65;;;22.10;99.90;;;;;;4979113;28;20036;-53
2023/08/25 12:42:59;;;;;;;16.88;10.38;;;21.90;99.90;;;;;;4938038;28;20668;-53